sensor_id;sensor_type;location;lat;lon;timestamp;P1;durP1;ratioP1;P2;durP2;ratioP2
8293;SDS011;4185;41.506;24.938;2024-02-14T00:00:29;23.17;;;15.13;;
8293;SDS011;4185;41.506;24.938;2024-02-14T00:02:56;23.47;;;15.73;;
8293;SDS011;4185;41.506;24.938;2024-02-14T00:05:23;27.53;;;17.00;;
8293;SDS011;4185;41.506;24.938;2024-02-14T00:07:51;25.27;;;17.77;;
8293;SDS011;4185;41.506;24.938;2024-02-14T00:10:18;24.57;;;15.97;;
8293;SDS011;4185;41.506;24.938;2024-02-14T00:12:44;18.03;;;12.07;;
8293;SDS011;4185;41.506;24.938;2024-02-14T00:15:11;18.63;;;12.93;;
8293;SDS011;4185;41.506;24.938;2024-02-14T00:17:40;20.77;;;14.70;;
8293;SDS011;4185;41.506;24.938;2024-02-14T00:20:07;22.17;;;14.33;;
8293;SDS011;4185;41.506;24.938;2024-02-14T00:22:36;20.23;;;13.10;;
8293;SDS011;4185;41.506;24.938;2024-02-14T00:25:03;20.80;;;13.63;;
8293;SDS011;4185;41.506;24.938;2024-02-14T00:27:30;25.80;;;14.60;;
8293;SDS011;4185;41.506;24.938;2024-02-14T00:29:57;25.13;;;14.67;;
8293;SDS011;4185;41.506;24.938;2024-02-14T00:32:24;21.77;;;12.67;;
8293;SDS011;4185;41.506;24.938;2024-02-14T00:34:52;18.00;;;12.20;;
8293;SDS011;4185;41.506;24.938;2024-02-14T00:37:19;24.57;;;15.23;;
8293;SDS011;4185;41.506;24.938;2024-02-14T00:39:46;25.30;;;15.60;;
8293;SDS011;4185;41.506;24.938;2024-02-14T00:42:13;25.53;;;16.00;;
8293;SDS011;4185;41.506;24.938;2024-02-14T00:44:40;27.80;;;17.00;;
8293;SDS011;4185;41.506;24.938;2024-02-14T00:47:07;20.30;;;14.07;;
8293;SDS011;4185;41.506;24.938;2024-02-14T00:49:34;16.10;;;10.63;;
8293;SDS011;4185;41.506;24.938;2024-02-14T00:52:02;18.23;;;10.73;;
8293;SDS011;4185;41.506;24.938;2024-02-14T00:54:29;17.77;;;11.77;;
8293;SDS011;4185;41.506;24.938;2024-02-14T00:56:56;18.97;;;10.90;;
8293;SDS011;4185;41.506;24.938;2024-02-14T00:59:23;15.30;;;10.30;;
8293;SDS011;4185;41.506;24.938;2024-02-14T01:01:50;18.10;;;11.47;;
8293;SDS011;4185;41.506;24.938;2024-02-14T01:04:17;17.37;;;10.33;;
8293;SDS011;4185;41.506;24.938;2024-02-14T01:06:43;16.17;;;10.23;;
8293;SDS011;4185;41.506;24.938;2024-02-14T01:09:11;12.33;;;8.57;;
8293;SDS011;4185;41.506;24.938;2024-02-14T01:11:38;14.80;;;8.97;;
8293;SDS011;4185;41.506;24.938;2024-02-14T01:14:05;15.53;;;9.63;;
8293;SDS011;4185;41.506;24.938;2024-02-14T01:16:32;15.50;;;9.63;;
8293;SDS011;4185;41.506;24.938;2024-02-14T01:18:58;17.83;;;9.70;;
8293;SDS011;4185;41.506;24.938;2024-02-14T01:21:25;20.60;;;10.63;;
8293;SDS011;4185;41.506;24.938;2024-02-14T01:23:52;13.73;;;9.20;;
8293;SDS011;4185;41.506;24.938;2024-02-14T01:26:20;11.57;;;6.97;;
8293;SDS011;4185;41.506;24.938;2024-02-14T01:28:47;11.30;;;8.33;;
8293;SDS011;4185;41.506;24.938;2024-02-14T01:31:13;12.60;;;8.47;;
8293;SDS011;4185;41.506;24.938;2024-02-14T01:33:40;9.37;;;5.70;;
8293;SDS011;4185;41.506;24.938;2024-02-14T01:36:07;7.57;;;4.87;;
8293;SDS011;4185;41.506;24.938;2024-02-14T01:38:33;8.33;;;5.33;;
8293;SDS011;4185;41.506;24.938;2024-02-14T01:41:01;10.73;;;6.23;;
8293;SDS011;4185;41.506;24.938;2024-02-14T01:43:30;8.73;;;6.00;;
8293;SDS011;4185;41.506;24.938;2024-02-14T01:45:57;10.33;;;6.97;;
8293;SDS011;4185;41.506;24.938;2024-02-14T01:48:31;9.43;;;7.17;;
8293;SDS011;4185;41.506;24.938;2024-02-14T01:50:58;9.67;;;6.70;;
8293;SDS011;4185;41.506;24.938;2024-02-14T01:53:27;8.67;;;6.70;;
8293;SDS011;4185;41.506;24.938;2024-02-14T01:55:56;13.77;;;8.53;;
8293;SDS011;4185;41.506;24.938;2024-02-14T01:58:23;14.03;;;8.10;;
8293;SDS011;4185;41.506;24.938;2024-02-14T02:00:52;10.03;;;6.47;;
8293;SDS011;4185;41.506;24.938;2024-02-14T02:03:22;14.20;;;7.40;;
8293;SDS011;4185;41.506;24.938;2024-02-14T02:05:50;11.87;;;7.27;;
8293;SDS011;4185;41.506;24.938;2024-02-14T02:08:17;8.07;;;4.80;;
8293;SDS011;4185;41.506;24.938;2024-02-14T02:10:44;7.03;;;4.73;;
8293;SDS011;4185;41.506;24.938;2024-02-14T02:13:11;6.00;;;4.63;;
8293;SDS011;4185;41.506;24.938;2024-02-14T02:15:37;5.93;;;4.00;;
8293;SDS011;4185;41.506;24.938;2024-02-14T02:18:06;7.33;;;4.80;;
8293;SDS011;4185;41.506;24.938;2024-02-14T02:20:33;5.43;;;4.00;;
8293;SDS011;4185;41.506;24.938;2024-02-14T02:23:01;6.77;;;4.30;;
8293;SDS011;4185;41.506;24.938;2024-02-14T02:25:28;6.87;;;4.93;;
8293;SDS011;4185;41.506;24.938;2024-02-14T02:27:54;6.47;;;4.93;;
8293;SDS011;4185;41.506;24.938;2024-02-14T02:30:22;6.23;;;4.20;;
8293;SDS011;4185;41.506;24.938;2024-02-14T02:32:49;6.20;;;4.70;;
8293;SDS011;4185;41.506;24.938;2024-02-14T02:35:16;5.47;;;3.97;;
8293;SDS011;4185;41.506;24.938;2024-02-14T02:37:45;5.77;;;4.60;;
8293;SDS011;4185;41.506;24.938;2024-02-14T02:40:14;6.47;;;5.17;;
8293;SDS011;4185;41.506;24.938;2024-02-14T02:42:42;3.97;;;3.40;;
8293;SDS011;4185;41.506;24.938;2024-02-14T02:45:10;5.47;;;4.00;;
8293;SDS011;4185;41.506;24.938;2024-02-14T02:47:37;6.27;;;4.40;;
8293;SDS011;4185;41.506;24.938;2024-02-14T02:50:05;8.03;;;5.10;;
8293;SDS011;4185;41.506;24.938;2024-02-14T02:52:33;6.27;;;4.50;;
8293;SDS011;4185;41.506;24.938;2024-02-14T02:55:00;5.93;;;3.87;;
8293;SDS011;4185;41.506;24.938;2024-02-14T02:57:28;5.30;;;3.93;;
8293;SDS011;4185;41.506;24.938;2024-02-14T02:59:57;5.87;;;3.87;;
8293;SDS011;4185;41.506;24.938;2024-02-14T03:02:24;5.67;;;3.47;;
8293;SDS011;4185;41.506;24.938;2024-02-14T03:04:51;4.87;;;3.70;;
8293;SDS011;4185;41.506;24.938;2024-02-14T03:07:18;8.37;;;4.53;;
8293;SDS011;4185;41.506;24.938;2024-02-14T03:09:45;4.90;;;3.17;;
8293;SDS011;4185;41.506;24.938;2024-02-14T03:12:12;6.23;;;4.10;;
8293;SDS011;4185;41.506;24.938;2024-02-14T03:14:42;6.47;;;4.53;;
8293;SDS011;4185;41.506;24.938;2024-02-14T03:17:09;6.70;;;4.60;;
8293;SDS011;4185;41.506;24.938;2024-02-14T03:19:36;6.57;;;4.57;;
8293;SDS011;4185;41.506;24.938;2024-02-14T03:22:04;6.37;;;4.13;;
8293;SDS011;4185;41.506;24.938;2024-02-14T03:24:34;6.43;;;4.80;;
8293;SDS011;4185;41.506;24.938;2024-02-14T03:27:02;9.67;;;5.00;;
8293;SDS011;4185;41.506;24.938;2024-02-14T03:29:30;4.63;;;3.70;;
8293;SDS011;4185;41.506;24.938;2024-02-14T03:31:59;6.07;;;4.20;;
8293;SDS011;4185;41.506;24.938;2024-02-14T03:34:29;6.87;;;4.00;;
8293;SDS011;4185;41.506;24.938;2024-02-14T03:36:58;3.90;;;3.23;;
8293;SDS011;4185;41.506;24.938;2024-02-14T03:39:26;3.70;;;3.30;;
8293;SDS011;4185;41.506;24.938;2024-02-14T03:41:52;4.77;;;3.10;;
8293;SDS011;4185;41.506;24.938;2024-02-14T03:44:19;4.90;;;3.43;;
8293;SDS011;4185;41.506;24.938;2024-02-14T03:46:48;5.37;;;3.40;;
8293;SDS011;4185;41.506;24.938;2024-02-14T03:49:17;4.13;;;3.00;;
8293;SDS011;4185;41.506;24.938;2024-02-14T03:51:44;4.50;;;3.33;;
8293;SDS011;4185;41.506;24.938;2024-02-14T03:54:11;5.13;;;3.40;;
8293;SDS011;4185;41.506;24.938;2024-02-14T03:56:38;5.37;;;3.80;;
8293;SDS011;4185;41.506;24.938;2024-02-14T03:59:06;5.23;;;3.30;;
8293;SDS011;4185;41.506;24.938;2024-02-14T04:01:32;3.80;;;3.20;;
8293;SDS011;4185;41.506;24.938;2024-02-14T04:03:59;4.93;;;3.53;;
8293;SDS011;4185;41.506;24.938;2024-02-14T04:06:27;4.17;;;3.73;;
8293;SDS011;4185;41.506;24.938;2024-02-14T04:08:56;5.47;;;3.27;;
8293;SDS011;4185;41.506;24.938;2024-02-14T04:11:24;5.17;;;3.40;;
8293;SDS011;4185;41.506;24.938;2024-02-14T04:13:50;4.23;;;3.53;;
8293;SDS011;4185;41.506;24.938;2024-02-14T04:16:18;5.00;;;4.00;;
8293;SDS011;4185;41.506;24.938;2024-02-14T04:18:46;5.27;;;3.70;;
8293;SDS011;4185;41.506;24.938;2024-02-14T04:21:13;4.13;;;3.73;;
8293;SDS011;4185;41.506;24.938;2024-02-14T04:23:41;4.20;;;3.13;;
8293;SDS011;4185;41.506;24.938;2024-02-14T04:26:08;3.80;;;3.40;;
8293;SDS011;4185;41.506;24.938;2024-02-14T04:28:35;7.10;;;5.40;;
8293;SDS011;4185;41.506;24.938;2024-02-14T04:31:02;4.00;;;3.20;;
8293;SDS011;4185;41.506;24.938;2024-02-14T04:33:28;4.30;;;3.00;;
8293;SDS011;4185;41.506;24.938;2024-02-14T04:35:55;8.83;;;5.27;;
8293;SDS011;4185;41.506;24.938;2024-02-14T04:38:22;5.40;;;3.77;;
8293;SDS011;4185;41.506;24.938;2024-02-14T04:40:50;6.57;;;3.97;;
8293;SDS011;4185;41.506;24.938;2024-02-14T04:43:17;8.33;;;5.30;;
8293;SDS011;4185;41.506;24.938;2024-02-14T04:45:44;10.17;;;6.40;;
8293;SDS011;4185;41.506;24.938;2024-02-14T04:48:12;13.30;;;6.97;;
8293;SDS011;4185;41.506;24.938;2024-02-14T04:50:38;13.40;;;8.00;;
8293;SDS011;4185;41.506;24.938;2024-02-14T04:53:05;11.73;;;8.40;;
8293;SDS011;4185;41.506;24.938;2024-02-14T04:55:32;10.07;;;7.13;;
8293;SDS011;4185;41.506;24.938;2024-02-14T04:58:00;9.60;;;7.30;;
8293;SDS011;4185;41.506;24.938;2024-02-14T05:00:27;10.33;;;7.17;;
8293;SDS011;4185;41.506;24.938;2024-02-14T05:02:54;10.67;;;7.10;;
8293;SDS011;4185;41.506;24.938;2024-02-14T05:05:22;7.87;;;5.57;;
8293;SDS011;4185;41.506;24.938;2024-02-14T05:07:49;9.87;;;7.30;;
8293;SDS011;4185;41.506;24.938;2024-02-14T05:10:16;32.07;;;16.40;;
8293;SDS011;4185;41.506;24.938;2024-02-14T05:12:43;35.33;;;19.23;;
8293;SDS011;4185;41.506;24.938;2024-02-14T05:15:12;54.10;;;24.10;;
8293;SDS011;4185;41.506;24.938;2024-02-14T05:17:41;21.73;;;12.43;;
8293;SDS011;4185;41.506;24.938;2024-02-14T05:20:08;5.63;;;3.90;;
8293;SDS011;4185;41.506;24.938;2024-02-14T05:22:36;6.57;;;4.13;;
8293;SDS011;4185;41.506;24.938;2024-02-14T05:25:03;11.13;;;7.40;;
8293;SDS011;4185;41.506;24.938;2024-02-14T05:27:32;10.73;;;7.83;;
8293;SDS011;4185;41.506;24.938;2024-02-14T05:29:59;7.87;;;6.47;;
8293;SDS011;4185;41.506;24.938;2024-02-14T05:32:27;11.87;;;8.00;;
8293;SDS011;4185;41.506;24.938;2024-02-14T05:34:54;14.30;;;7.73;;
8293;SDS011;4185;41.506;24.938;2024-02-14T05:37:21;36.93;;;20.47;;
8293;SDS011;4185;41.506;24.938;2024-02-14T05:39:47;43.50;;;28.07;;
8293;SDS011;4185;41.506;24.938;2024-02-14T05:42:14;11.73;;;8.70;;
8293;SDS011;4185;41.506;24.938;2024-02-14T05:44:42;12.00;;;7.87;;
8293;SDS011;4185;41.506;24.938;2024-02-14T05:47:09;21.20;;;13.87;;
8293;SDS011;4185;41.506;24.938;2024-02-14T05:49:37;17.13;;;11.13;;
8293;SDS011;4185;41.506;24.938;2024-02-14T05:52:05;13.80;;;9.97;;
8293;SDS011;4185;41.506;24.938;2024-02-14T05:54:32;12.33;;;8.80;;
8293;SDS011;4185;41.506;24.938;2024-02-14T05:56:58;9.67;;;7.40;;
8293;SDS011;4185;41.506;24.938;2024-02-14T05:59:26;32.73;;;20.13;;
8293;SDS011;4185;41.506;24.938;2024-02-14T06:01:52;11.83;;;8.87;;
8293;SDS011;4185;41.506;24.938;2024-02-14T06:04:19;14.03;;;8.57;;
8293;SDS011;4185;41.506;24.938;2024-02-14T06:06:47;17.87;;;9.97;;
8293;SDS011;4185;41.506;24.938;2024-02-14T06:09:14;283.17;;;105.50;;
8293;SDS011;4185;41.506;24.938;2024-02-14T06:11:41;96.90;;;56.23;;
8293;SDS011;4185;41.506;24.938;2024-02-14T06:14:09;24.27;;;13.93;;
8293;SDS011;4185;41.506;24.938;2024-02-14T06:16:35;24.33;;;14.97;;
8293;SDS011;4185;41.506;24.938;2024-02-14T06:19:03;22.13;;;15.50;;
8293;SDS011;4185;41.506;24.938;2024-02-14T06:21:31;17.37;;;11.40;;
8293;SDS011;4185;41.506;24.938;2024-02-14T06:23:59;14.80;;;10.47;;
8293;SDS011;4185;41.506;24.938;2024-02-14T06:26:26;30.77;;;14.50;;
8293;SDS011;4185;41.506;24.938;2024-02-14T06:28:53;37.00;;;18.93;;
8293;SDS011;4185;41.506;24.938;2024-02-14T06:31:20;31.73;;;16.17;;
8293;SDS011;4185;41.506;24.938;2024-02-14T06:33:47;17.57;;;12.03;;
8293;SDS011;4185;41.506;24.938;2024-02-14T06:36:13;40.80;;;25.00;;
8293;SDS011;4185;41.506;24.938;2024-02-14T06:38:40;16.17;;;10.13;;
8293;SDS011;4185;41.506;24.938;2024-02-14T06:41:08;30.27;;;21.93;;
8293;SDS011;4185;41.506;24.938;2024-02-14T06:43:35;21.33;;;12.83;;
8293;SDS011;4185;41.506;24.938;2024-02-14T06:46:04;19.13;;;12.40;;
8293;SDS011;4185;41.506;24.938;2024-02-14T06:48:31;23.63;;;15.27;;
8293;SDS011;4185;41.506;24.938;2024-02-14T06:50:59;26.03;;;15.63;;
8293;SDS011;4185;41.506;24.938;2024-02-14T06:53:25;18.80;;;11.27;;
8293;SDS011;4185;41.506;24.938;2024-02-14T06:55:52;22.50;;;14.20;;
8293;SDS011;4185;41.506;24.938;2024-02-14T06:58:20;29.33;;;18.53;;
8293;SDS011;4185;41.506;24.938;2024-02-14T07:00:47;26.17;;;15.83;;
8293;SDS011;4185;41.506;24.938;2024-02-14T07:03:14;51.63;;;27.37;;
8293;SDS011;4185;41.506;24.938;2024-02-14T07:05:41;51.33;;;34.53;;
8293;SDS011;4185;41.506;24.938;2024-02-14T07:08:08;33.17;;;22.47;;
8293;SDS011;4185;41.506;24.938;2024-02-14T07:10:35;23.33;;;15.20;;
8293;SDS011;4185;41.506;24.938;2024-02-14T07:13:02;22.17;;;14.73;;
8293;SDS011;4185;41.506;24.938;2024-02-14T07:15:30;21.37;;;14.20;;
8293;SDS011;4185;41.506;24.938;2024-02-14T07:17:57;48.53;;;30.37;;
8293;SDS011;4185;41.506;24.938;2024-02-14T07:20:24;28.50;;;17.00;;
8293;SDS011;4185;41.506;24.938;2024-02-14T07:22:52;29.87;;;17.53;;
8293;SDS011;4185;41.506;24.938;2024-02-14T07:25:20;37.07;;;23.50;;
8293;SDS011;4185;41.506;24.938;2024-02-14T07:27:47;53.60;;;35.23;;
8293;SDS011;4185;41.506;24.938;2024-02-14T07:30:14;28.00;;;18.13;;
8293;SDS011;4185;41.506;24.938;2024-02-14T07:32:43;35.30;;;22.23;;
8293;SDS011;4185;41.506;24.938;2024-02-14T07:35:10;29.30;;;18.97;;
8293;SDS011;4185;41.506;24.938;2024-02-14T07:37:38;23.77;;;14.90;;
8293;SDS011;4185;41.506;24.938;2024-02-14T07:40:05;40.60;;;23.67;;
8293;SDS011;4185;41.506;24.938;2024-02-14T07:42:32;21.00;;;14.67;;
8293;SDS011;4185;41.506;24.938;2024-02-14T07:44:59;21.77;;;15.27;;
8293;SDS011;4185;41.506;24.938;2024-02-14T07:47:28;21.47;;;14.23;;
8293;SDS011;4185;41.506;24.938;2024-02-14T07:49:56;24.53;;;15.87;;
8293;SDS011;4185;41.506;24.938;2024-02-14T07:52:23;34.43;;;22.87;;
8293;SDS011;4185;41.506;24.938;2024-02-14T07:54:51;23.67;;;13.87;;
8293;SDS011;4185;41.506;24.938;2024-02-14T07:57:19;19.77;;;13.47;;
8293;SDS011;4185;41.506;24.938;2024-02-14T07:59:46;18.00;;;12.53;;
8293;SDS011;4185;41.506;24.938;2024-02-14T08:02:13;16.20;;;11.93;;
8293;SDS011;4185;41.506;24.938;2024-02-14T08:04:40;19.73;;;12.40;;
8293;SDS011;4185;41.506;24.938;2024-02-14T08:07:08;25.87;;;17.23;;
8293;SDS011;4185;41.506;24.938;2024-02-14T08:09:35;18.90;;;13.97;;
8293;SDS011;4185;41.506;24.938;2024-02-14T08:12:04;31.23;;;19.37;;
8293;SDS011;4185;41.506;24.938;2024-02-14T08:14:31;61.37;;;39.67;;
8293;SDS011;4185;41.506;24.938;2024-02-14T08:16:58;48.83;;;33.10;;
8293;SDS011;4185;41.506;24.938;2024-02-14T08:19:25;26.33;;;18.50;;
8293;SDS011;4185;41.506;24.938;2024-02-14T08:21:52;30.37;;;19.87;;
8293;SDS011;4185;41.506;24.938;2024-02-14T08:24:24;35.60;;;21.40;;
8293;SDS011;4185;41.506;24.938;2024-02-14T08:26:51;36.53;;;22.93;;
8293;SDS011;4185;41.506;24.938;2024-02-14T08:29:18;50.43;;;34.27;;
8293;SDS011;4185;41.506;24.938;2024-02-14T08:31:45;51.90;;;33.03;;
8293;SDS011;4185;41.506;24.938;2024-02-14T08:34:11;36.33;;;22.53;;
8293;SDS011;4185;41.506;24.938;2024-02-14T08:36:38;36.60;;;25.00;;
8293;SDS011;4185;41.506;24.938;2024-02-14T08:39:06;39.80;;;25.00;;
8293;SDS011;4185;41.506;24.938;2024-02-14T08:41:35;30.70;;;20.47;;
8293;SDS011;4185;41.506;24.938;2024-02-14T08:44:02;29.73;;;20.20;;
8293;SDS011;4185;41.506;24.938;2024-02-14T08:46:30;38.10;;;20.83;;
8293;SDS011;4185;41.506;24.938;2024-02-14T08:48:56;33.57;;;20.27;;
8293;SDS011;4185;41.506;24.938;2024-02-14T08:51:24;28.67;;;19.73;;
8293;SDS011;4185;41.506;24.938;2024-02-14T08:53:50;30.57;;;21.10;;
8293;SDS011;4185;41.506;24.938;2024-02-14T08:56:20;39.53;;;25.93;;
8293;SDS011;4185;41.506;24.938;2024-02-14T08:58:48;40.33;;;24.07;;
8293;SDS011;4185;41.506;24.938;2024-02-14T09:01:15;36.07;;;21.73;;
8293;SDS011;4185;41.506;24.938;2024-02-14T09:03:41;36.80;;;24.47;;
8293;SDS011;4185;41.506;24.938;2024-02-14T09:06:12;38.23;;;24.13;;
8293;SDS011;4185;41.506;24.938;2024-02-14T09:08:39;35.07;;;22.93;;
8293;SDS011;4185;41.506;24.938;2024-02-14T09:11:06;47.63;;;26.50;;
8293;SDS011;4185;41.506;24.938;2024-02-14T09:13:34;33.37;;;20.77;;
8293;SDS011;4185;41.506;24.938;2024-02-14T09:16:02;19.83;;;13.50;;
8293;SDS011;4185;41.506;24.938;2024-02-14T09:18:30;23.33;;;16.13;;
8293;SDS011;4185;41.506;24.938;2024-02-14T09:20:57;24.40;;;15.97;;
8293;SDS011;4185;41.506;24.938;2024-02-14T09:23:24;20.07;;;13.97;;
8293;SDS011;4185;41.506;24.938;2024-02-14T09:25:51;19.83;;;12.77;;
8293;SDS011;4185;41.506;24.938;2024-02-14T09:28:18;24.20;;;16.07;;
8293;SDS011;4185;41.506;24.938;2024-02-14T09:30:45;30.57;;;19.50;;
8293;SDS011;4185;41.506;24.938;2024-02-14T09:33:13;26.33;;;17.17;;
8293;SDS011;4185;41.506;24.938;2024-02-14T09:35:39;28.13;;;17.43;;
8293;SDS011;4185;41.506;24.938;2024-02-14T09:38:09;16.67;;;12.00;;
8293;SDS011;4185;41.506;24.938;2024-02-14T09:40:37;15.67;;;11.50;;
8293;SDS011;4185;41.506;24.938;2024-02-14T09:43:05;23.37;;;13.73;;
8293;SDS011;4185;41.506;24.938;2024-02-14T09:45:36;22.00;;;13.67;;
8293;SDS011;4185;41.506;24.938;2024-02-14T09:48:06;22.83;;;14.90;;
8293;SDS011;4185;41.506;24.938;2024-02-14T09:50:35;19.07;;;12.87;;
8293;SDS011;4185;41.506;24.938;2024-02-14T09:53:03;32.73;;;18.97;;
8293;SDS011;4185;41.506;24.938;2024-02-14T09:55:30;14.67;;;8.97;;
8293;SDS011;4185;41.506;24.938;2024-02-14T09:57:58;24.97;;;13.70;;
8293;SDS011;4185;41.506;24.938;2024-02-14T10:00:29;29.77;;;15.13;;
8293;SDS011;4185;41.506;24.938;2024-02-14T10:02:58;23.03;;;12.47;;
8293;SDS011;4185;41.506;24.938;2024-02-14T10:05:25;18.63;;;11.67;;
8293;SDS011;4185;41.506;24.938;2024-02-14T10:07:54;22.13;;;14.73;;
8293;SDS011;4185;41.506;24.938;2024-02-14T10:10:23;19.47;;;11.23;;
8293;SDS011;4185;41.506;24.938;2024-02-14T10:12:49;16.87;;;9.23;;
8293;SDS011;4185;41.506;24.938;2024-02-14T10:15:16;24.90;;;12.77;;
8293;SDS011;4185;41.506;24.938;2024-02-14T10:17:43;6.30;;;4.40;;
8293;SDS011;4185;41.506;24.938;2024-02-14T10:20:10;13.60;;;7.63;;
8293;SDS011;4185;41.506;24.938;2024-02-14T10:22:38;11.60;;;6.33;;
8293;SDS011;4185;41.506;24.938;2024-02-14T10:25:07;15.20;;;6.33;;
8293;SDS011;4185;41.506;24.938;2024-02-14T10:27:35;9.23;;;5.47;;
8293;SDS011;4185;41.506;24.938;2024-02-14T10:30:04;5.47;;;3.10;;
8293;SDS011;4185;41.506;24.938;2024-02-14T10:32:34;3.07;;;2.63;;
8293;SDS011;4185;41.506;24.938;2024-02-14T10:35:02;1.80;;;1.57;;
8293;SDS011;4185;41.506;24.938;2024-02-14T10:37:33;2.97;;;2.33;;
8293;SDS011;4185;41.506;24.938;2024-02-14T10:40:01;9.10;;;4.57;;
8293;SDS011;4185;41.506;24.938;2024-02-14T10:42:30;10.90;;;5.17;;
8293;SDS011;4185;41.506;24.938;2024-02-14T10:44:57;2.03;;;1.80;;
8293;SDS011;4185;41.506;24.938;2024-02-14T10:47:24;1.80;;;1.63;;
8293;SDS011;4185;41.506;24.938;2024-02-14T10:49:56;1.60;;;1.50;;
8293;SDS011;4185;41.506;24.938;2024-02-14T10:52:27;4.30;;;3.93;;
8293;SDS011;4185;41.506;24.938;2024-02-14T10:54:58;2.53;;;1.73;;
8293;SDS011;4185;41.506;24.938;2024-02-14T10:57:27;2.00;;;1.80;;
8293;SDS011;4185;41.506;24.938;2024-02-14T10:59:57;2.47;;;2.20;;
8293;SDS011;4185;41.506;24.938;2024-02-14T11:02:26;9.23;;;4.97;;
8293;SDS011;4185;41.506;24.938;2024-02-14T11:04:55;3.30;;;2.40;;
8293;SDS011;4185;41.506;24.938;2024-02-14T11:07:22;2.53;;;2.23;;
8293;SDS011;4185;41.506;24.938;2024-02-14T11:09:59;3.30;;;2.13;;
8293;SDS011;4185;41.506;24.938;2024-02-14T11:12:27;1.97;;;1.77;;
8293;SDS011;4185;41.506;24.938;2024-02-14T11:15:00;2.10;;;1.80;;
8293;SDS011;4185;41.506;24.938;2024-02-14T11:17:29;1.50;;;1.40;;
8293;SDS011;4185;41.506;24.938;2024-02-14T11:19:56;2.30;;;2.10;;
8293;SDS011;4185;41.506;24.938;2024-02-14T11:22:22;4.10;;;3.30;;
8293;SDS011;4185;41.506;24.938;2024-02-14T11:24:51;3.00;;;2.50;;
8293;SDS011;4185;41.506;24.938;2024-02-14T11:27:18;7.10;;;4.93;;
8293;SDS011;4185;41.506;24.938;2024-02-14T11:29:50;4.37;;;2.13;;
8293;SDS011;4185;41.506;24.938;2024-02-14T11:32:21;4.90;;;3.83;;
8293;SDS011;4185;41.506;24.938;2024-02-14T11:34:55;6.00;;;2.73;;
8293;SDS011;4185;41.506;24.938;2024-02-14T11:37:27;2.73;;;1.73;;
8293;SDS011;4185;41.506;24.938;2024-02-14T11:39:54;2.63;;;2.10;;
8293;SDS011;4185;41.506;24.938;2024-02-14T11:42:21;2.90;;;2.50;;
8293;SDS011;4185;41.506;24.938;2024-02-14T11:44:48;4.80;;;2.83;;
8293;SDS011;4185;41.506;24.938;2024-02-14T11:47:15;2.20;;;1.50;;
8293;SDS011;4185;41.506;24.938;2024-02-14T11:49:43;2.40;;;2.00;;
8293;SDS011;4185;41.506;24.938;2024-02-14T11:52:11;2.30;;;2.00;;
8293;SDS011;4185;41.506;24.938;2024-02-14T11:54:39;1.70;;;1.47;;
8293;SDS011;4185;41.506;24.938;2024-02-14T11:57:05;1.47;;;1.37;;
8293;SDS011;4185;41.506;24.938;2024-02-14T11:59:34;2.17;;;1.97;;
8293;SDS011;4185;41.506;24.938;2024-02-14T12:02:01;1.70;;;1.60;;
8293;SDS011;4185;41.506;24.938;2024-02-14T12:04:29;1.20;;;1.10;;
8293;SDS011;4185;41.506;24.938;2024-02-14T12:06:58;6.57;;;3.27;;
8293;SDS011;4185;41.506;24.938;2024-02-14T12:09:25;4.83;;;3.17;;
8293;SDS011;4185;41.506;24.938;2024-02-14T12:11:52;3.37;;;2.80;;
8293;SDS011;4185;41.506;24.938;2024-02-14T12:14:19;3.63;;;3.00;;
8293;SDS011;4185;41.506;24.938;2024-02-14T12:16:50;1.40;;;1.27;;
8293;SDS011;4185;41.506;24.938;2024-02-14T12:19:22;3.00;;;1.93;;
8293;SDS011;4185;41.506;24.938;2024-02-14T12:21:49;4.30;;;3.00;;
8293;SDS011;4185;41.506;24.938;2024-02-14T12:24:17;6.03;;;3.80;;
8293;SDS011;4185;41.506;24.938;2024-02-14T12:26:44;4.97;;;3.47;;
8293;SDS011;4185;41.506;24.938;2024-02-14T12:29:13;4.63;;;3.40;;
8293;SDS011;4185;41.506;24.938;2024-02-14T12:31:40;8.90;;;5.27;;
8293;SDS011;4185;41.506;24.938;2024-02-14T12:34:10;3.00;;;2.20;;
8293;SDS011;4185;41.506;24.938;2024-02-14T12:36:37;1.60;;;1.50;;
8293;SDS011;4185;41.506;24.938;2024-02-14T12:39:04;1.30;;;1.20;;
8293;SDS011;4185;41.506;24.938;2024-02-14T12:41:32;1.80;;;1.70;;
8293;SDS011;4185;41.506;24.938;2024-02-14T12:44:00;4.77;;;2.40;;
8293;SDS011;4185;41.506;24.938;2024-02-14T12:46:27;3.00;;;2.17;;
8293;SDS011;4185;41.506;24.938;2024-02-14T12:48:54;2.30;;;2.10;;
8293;SDS011;4185;41.506;24.938;2024-02-14T12:51:21;13.67;;;5.97;;
8293;SDS011;4185;41.506;24.938;2024-02-14T12:53:53;45.57;;;16.00;;
8293;SDS011;4185;41.506;24.938;2024-02-14T12:56:20;32.07;;;12.53;;
8293;SDS011;4185;41.506;24.938;2024-02-14T12:58:48;6.87;;;3.63;;
8293;SDS011;4185;41.506;24.938;2024-02-14T13:01:15;5.37;;;2.93;;
8293;SDS011;4185;41.506;24.938;2024-02-14T13:03:43;1.77;;;1.60;;
8293;SDS011;4185;41.506;24.938;2024-02-14T13:06:10;1.43;;;1.33;;
8293;SDS011;4185;41.506;24.938;2024-02-14T13:08:37;1.97;;;1.40;;
8293;SDS011;4185;41.506;24.938;2024-02-14T13:11:04;2.00;;;1.67;;
8293;SDS011;4185;41.506;24.938;2024-02-14T13:13:33;4.60;;;3.53;;
8293;SDS011;4185;41.506;24.938;2024-02-14T13:16:02;3.23;;;1.70;;
8293;SDS011;4185;41.506;24.938;2024-02-14T13:18:31;3.60;;;2.90;;
8293;SDS011;4185;41.506;24.938;2024-02-14T13:20:58;5.10;;;3.40;;
8293;SDS011;4185;41.506;24.938;2024-02-14T13:23:24;6.13;;;3.57;;
8293;SDS011;4185;41.506;24.938;2024-02-14T13:25:51;7.73;;;3.80;;
8293;SDS011;4185;41.506;24.938;2024-02-14T13:28:18;1.93;;;1.60;;
8293;SDS011;4185;41.506;24.938;2024-02-14T13:30:45;2.90;;;2.57;;
8293;SDS011;4185;41.506;24.938;2024-02-14T13:35:41;9.97;;;5.43;;
8293;SDS011;4185;41.506;24.938;2024-02-14T13:38:08;10.17;;;5.47;;
8293;SDS011;4185;41.506;24.938;2024-02-14T13:40:35;6.63;;;4.03;;
8293;SDS011;4185;41.506;24.938;2024-02-14T13:43:02;2.27;;;1.97;;
8293;SDS011;4185;41.506;24.938;2024-02-14T13:45:35;2.27;;;2.03;;
8293;SDS011;4185;41.506;24.938;2024-02-14T13:48:07;3.73;;;2.10;;
8293;SDS011;4185;41.506;24.938;2024-02-14T13:50:36;17.03;;;7.57;;
8293;SDS011;4185;41.506;24.938;2024-02-14T13:53:03;22.53;;;8.47;;
8293;SDS011;4185;41.506;24.938;2024-02-14T13:55:30;3.70;;;2.50;;
8293;SDS011;4185;41.506;24.938;2024-02-14T13:57:56;5.57;;;3.63;;
8293;SDS011;4185;41.506;24.938;2024-02-14T14:00:23;3.97;;;3.00;;
8293;SDS011;4185;41.506;24.938;2024-02-14T14:02:50;3.77;;;2.50;;
8293;SDS011;4185;41.506;24.938;2024-02-14T14:05:16;4.33;;;2.93;;
8293;SDS011;4185;41.506;24.938;2024-02-14T14:07:45;5.27;;;2.90;;
8293;SDS011;4185;41.506;24.938;2024-02-14T14:10:11;1.73;;;1.60;;
8293;SDS011;4185;41.506;24.938;2024-02-14T14:12:38;4.23;;;2.27;;
8293;SDS011;4185;41.506;24.938;2024-02-14T14:15:05;8.80;;;5.83;;
8293;SDS011;4185;41.506;24.938;2024-02-14T14:17:34;10.90;;;6.20;;
8293;SDS011;4185;41.506;24.938;2024-02-14T14:20:01;5.57;;;3.23;;
8293;SDS011;4185;41.506;24.938;2024-02-14T14:22:28;8.57;;;4.30;;
8293;SDS011;4185;41.506;24.938;2024-02-14T14:24:57;7.70;;;3.37;;
8293;SDS011;4185;41.506;24.938;2024-02-14T14:27:23;3.23;;;2.20;;
8293;SDS011;4185;41.506;24.938;2024-02-14T14:29:50;3.70;;;3.40;;
8293;SDS011;4185;41.506;24.938;2024-02-14T14:32:18;1.87;;;1.70;;
8293;SDS011;4185;41.506;24.938;2024-02-14T14:34:45;3.10;;;2.70;;
8293;SDS011;4185;41.506;24.938;2024-02-14T14:37:12;3.23;;;2.50;;
8293;SDS011;4185;41.506;24.938;2024-02-14T14:39:39;2.70;;;2.07;;
8293;SDS011;4185;41.506;24.938;2024-02-14T14:42:08;3.10;;;2.13;;
8293;SDS011;4185;41.506;24.938;2024-02-14T14:44:34;5.00;;;3.33;;
8293;SDS011;4185;41.506;24.938;2024-02-14T14:47:01;21.07;;;11.20;;
8293;SDS011;4185;41.506;24.938;2024-02-14T14:49:28;6.17;;;3.03;;
8293;SDS011;4185;41.506;24.938;2024-02-14T14:51:55;7.33;;;3.87;;